sensor_id;sensor_type;location;lat;lon;timestamp;temperature;humidity
21762;DHT22;11203;50.870;20.682;2023-02-28T00:01:30;-0.60;1.00
21762;DHT22;11203;50.870;20.682;2023-02-28T00:03:56;-0.70;24.20
21762;DHT22;11203;50.870;20.682;2023-02-28T00:06:23;-0.70;72.30
21762;DHT22;11203;50.870;20.682;2023-02-28T00:08:50;-0.80;99.90
21762;DHT22;11203;50.870;20.682;2023-02-28T00:11:16;-0.60;1.00
21762;DHT22;11203;50.870;20.682;2023-02-28T00:13:45;-0.70;1.00
21762;DHT22;11203;50.870;20.682;2023-02-28T00:16:16;-0.70;1.00
21762;DHT22;11203;50.870;20.682;2023-02-28T00:18:46;-0.70;2.70
21762;DHT22;11203;50.870;20.682;2023-02-28T00:21:13;-0.60;1.00
21762;DHT22;11203;50.870;20.682;2023-02-28T00:23:40;-0.80;99.90
21762;DHT22;11203;50.870;20.682;2023-02-28T00:26:06;-0.80;99.90
21762;DHT22;11203;50.870;20.682;2023-02-28T00:28:32;-0.70;1.00
21762;DHT22;11203;50.870;20.682;2023-02-28T00:30:59;-0.70;1.00
21762;DHT22;11203;50.870;20.682;2023-02-28T00:33:26;-0.70;99.90
21762;DHT22;11203;50.870;20.682;2023-02-28T00:36:05;-0.70;1.00
21762;DHT22;11203;50.870;20.682;2023-02-28T00:38:33;-0.80;1.00
21762;DHT22;11203;50.870;20.682;2023-02-28T00:40:59;-0.70;99.90
21762;DHT22;11203;50.870;20.682;2023-02-28T00:43:34;-0.80;99.90
21762;DHT22;11203;50.870;20.682;2023-02-28T00:46:02;-0.80;1.00
21762;DHT22;11203;50.870;20.682;2023-02-28T00:48:29;-0.80;99.90
21762;DHT22;11203;50.870;20.682;2023-02-28T00:50:55;-0.90;1.00
21762;DHT22;11203;50.870;20.682;2023-02-28T00:53:21;-0.90;39.00
21762;DHT22;11203;50.870;20.682;2023-02-28T00:55:48;-0.90;99.90
21762;DHT22;11203;50.870;20.682;2023-02-28T00:58:15;-0.90;99.90
21762;DHT22;11203;50.870;20.682;2023-02-28T01:00:41;-1.10;1.00
21762;DHT22;11203;50.870;20.682;2023-02-28T01:03:07;-1.10;99.90
21762;DHT22;11203;50.870;20.682;2023-02-28T01:05:33;-1.10;99.90
21762;DHT22;11203;50.870;20.682;2023-02-28T01:08:00;-1.10;99.90
21762;DHT22;11203;50.870;20.682;2023-02-28T01:10:27;-1.10;99.90
21762;DHT22;11203;50.870;20.682;2023-02-28T01:12:57;-1.10;1.00
21762;DHT22;11203;50.870;20.682;2023-02-28T01:15:23;-1.10;99.90
21762;DHT22;11203;50.870;20.682;2023-02-28T01:17:49;-1.10;62.60
21762;DHT22;11203;50.870;20.682;2023-02-28T01:20:15;-1.10;99.90
21762;DHT22;11203;50.870;20.682;2023-02-28T01:22:41;-1.10;99.90
21762;DHT22;11203;50.870;20.682;2023-02-28T01:25:08;-1.20;99.90
21762;DHT22;11203;50.870;20.682;2023-02-28T01:27:34;-1.20;1.00
21762;DHT22;11203;50.870;20.682;2023-02-28T01:30:02;-1.20;99.90
21762;DHT22;11203;50.870;20.682;2023-02-28T01:32:28;-1.20;99.90
21762;DHT22;11203;50.870;20.682;2023-02-28T01:34:54;-1.30;1.00
21762;DHT22;11203;50.870;20.682;2023-02-28T01:37:21;-1.30;1.00
21762;DHT22;11203;50.870;20.682;2023-02-28T01:39:47;-1.20;1.00
21762;DHT22;11203;50.870;20.682;2023-02-28T01:42:13;-1.20;1.00
21762;DHT22;11203;50.870;20.682;2023-02-28T01:47:43;-1.20;99.90
21762;DHT22;11203;50.870;20.682;2023-02-28T01:50:16;-1.10;99.90
21762;DHT22;11203;50.870;20.682;2023-02-28T01:52:47;-1.20;99.90
21762;DHT22;11203;50.870;20.682;2023-02-28T01:55:15;-1.20;99.90
21762;DHT22;11203;50.870;20.682;2023-02-28T01:57:46;-1.10;99.90
21762;DHT22;11203;50.870;20.682;2023-02-28T02:00:19;-1.20;1.00
21762;DHT22;11203;50.870;20.682;2023-02-28T02:02:51;-1.10;92.10
21762;DHT22;11203;50.870;20.682;2023-02-28T02:05:30;-1.20;99.90
21762;DHT22;11203;50.870;20.682;2023-02-28T02:08:06;-1.20;1.00
21762;DHT22;11203;50.870;20.682;2023-02-28T02:10:55;-1.10;1.00
21762;DHT22;11203;50.870;20.682;2023-02-28T02:19:41;-1.00;99.90
21762;DHT22;11203;50.870;20.682;2023-02-28T02:28:09;-1.00;1.00
21762;DHT22;11203;50.870;20.682;2023-02-28T02:34:26;-1.00;1.00
21762;DHT22;11203;50.870;20.682;2023-02-28T02:37:38;-1.00;1.00
21762;DHT22;11203;50.870;20.682;2023-02-28T02:40:16;-1.00;1.00
21762;DHT22;11203;50.870;20.682;2023-02-28T02:49:15;-1.00;1.00
21762;DHT22;11203;50.870;20.682;2023-02-28T02:51:44;-0.90;99.90
21762;DHT22;11203;50.870;20.682;2023-02-28T02:54:20;-1.10;1.00
21762;DHT22;11203;50.870;20.682;2023-02-28T02:56:48;-1.10;1.00
21762;DHT22;11203;50.870;20.682;2023-02-28T02:59:18;-1.10;1.00
21762;DHT22;11203;50.870;20.682;2023-02-28T03:01:53;-1.10;1.00
21762;DHT22;11203;50.870;20.682;2023-02-28T03:04:24;-1.10;99.90
21762;DHT22;11203;50.870;20.682;2023-02-28T03:06:52;-1.10;1.00
21762;DHT22;11203;50.870;20.682;2023-02-28T03:09:25;-1.00;1.00
21762;DHT22;11203;50.870;20.682;2023-02-28T03:11:54;-1.00;1.00
21762;DHT22;11203;50.870;20.682;2023-02-28T03:14:43;-1.20;1.00
21762;DHT22;11203;50.870;20.682;2023-02-28T03:24:03;-1.30;1.00
21762;DHT22;11203;50.870;20.682;2023-02-28T03:26:34;-1.40;99.90
21762;DHT22;11203;50.870;20.682;2023-02-28T03:29:23;-1.50;99.90
21762;DHT22;11203;50.870;20.682;2023-02-28T03:32:16;-1.50;99.90
21762;DHT22;11203;50.870;20.682;2023-02-28T03:35:20;-1.40;1.00
21762;DHT22;11203;50.870;20.682;2023-02-28T03:38:16;-1.60;1.00
21762;DHT22;11203;50.870;20.682;2023-02-28T03:40:50;-1.60;1.00
21762;DHT22;11203;50.870;20.682;2023-02-28T03:43:23;-1.70;1.00
21762;DHT22;11203;50.870;20.682;2023-02-28T03:45:55;-1.60;1.00
21762;DHT22;11203;50.870;20.682;2023-02-28T03:48:31;-1.70;1.00
21762;DHT22;11203;50.870;20.682;2023-02-28T03:51:02;-1.60;1.00
21762;DHT22;11203;50.870;20.682;2023-02-28T03:53:33;-1.80;1.00
21762;DHT22;11203;50.870;20.682;2023-02-28T03:56:16;-2.00;1.00
21762;DHT22;11203;50.870;20.682;2023-02-28T03:59:02;-1.90;1.00
21762;DHT22;11203;50.870;20.682;2023-02-28T04:01:39;-1.90;1.00
21762;DHT22;11203;50.870;20.682;2023-02-28T04:04:09;-2.00;1.00
21762;DHT22;11203;50.870;20.682;2023-02-28T04:06:36;-2.10;99.90
21762;DHT22;11203;50.870;20.682;2023-02-28T04:09:04;-2.20;1.00
21762;DHT22;11203;50.870;20.682;2023-02-28T04:14:18;-2.20;99.90
21762;DHT22;11203;50.870;20.682;2023-02-28T04:16:44;-2.20;99.90
21762;DHT22;11203;50.870;20.682;2023-02-28T04:19:12;-2.20;99.90
21762;DHT22;11203;50.870;20.682;2023-02-28T04:21:42;-2.30;19.60
21762;DHT22;11203;50.870;20.682;2023-02-28T04:24:18;-2.30;1.00
21762;DHT22;11203;50.870;20.682;2023-02-28T04:26:47;-2.30;99.90
21762;DHT22;11203;50.870;20.682;2023-02-28T04:29:21;-2.30;99.90
21762;DHT22;11203;50.870;20.682;2023-02-28T04:32:01;-2.40;99.90
21762;DHT22;11203;50.870;20.682;2023-02-28T04:34:29;-2.30;1.00
21762;DHT22;11203;50.870;20.682;2023-02-28T04:36:56;-2.20;30.60
21762;DHT22;11203;50.870;20.682;2023-02-28T04:39:24;-2.20;1.00
21762;DHT22;11203;50.870;20.682;2023-02-28T04:41:50;-2.30;1.00
21762;DHT22;11203;50.870;20.682;2023-02-28T04:44:17;-2.30;40.00
21762;DHT22;11203;50.870;20.682;2023-02-28T04:46:43;-2.20;16.50
21762;DHT22;11203;50.870;20.682;2023-02-28T04:49:11;-2.20;1.00
21762;DHT22;11203;50.870;20.682;2023-02-28T04:51:37;-2.20;1.00
21762;DHT22;11203;50.870;20.682;2023-02-28T04:54:03;-2.30;1.00
21762;DHT22;11203;50.870;20.682;2023-02-28T04:56:29;-2.30;1.00
21762;DHT22;11203;50.870;20.682;2023-02-28T04:58:56;-2.30;1.00
21762;DHT22;11203;50.870;20.682;2023-02-28T05:01:28;-2.40;1.00
21762;DHT22;11203;50.870;20.682;2023-02-28T05:03:58;-2.30;5.20
21762;DHT22;11203;50.870;20.682;2023-02-28T05:06:28;-2.30;99.90
21762;DHT22;11203;50.870;20.682;2023-02-28T05:08:58;-2.30;99.90
21762;DHT22;11203;50.870;20.682;2023-02-28T05:11:33;-2.30;1.00
21762;DHT22;11203;50.870;20.682;2023-02-28T05:14:02;-2.40;1.00
21762;DHT22;11203;50.870;20.682;2023-02-28T05:16:29;-2.40;1.00
21762;DHT22;11203;50.870;20.682;2023-02-28T05:18:56;-2.50;1.00
21762;DHT22;11203;50.870;20.682;2023-02-28T05:24:00;-2.40;1.00
21762;DHT22;11203;50.870;20.682;2023-02-28T05:26:28;-2.40;1.00
21762;DHT22;11203;50.870;20.682;2023-02-28T05:28:56;-2.50;1.00
21762;DHT22;11203;50.870;20.682;2023-02-28T05:31:22;-2.40;1.00
21762;DHT22;11203;50.870;20.682;2023-02-28T05:33:49;-2.50;1.00
21762;DHT22;11203;50.870;20.682;2023-02-28T05:36:19;-2.60;1.00
21762;DHT22;11203;50.870;20.682;2023-02-28T05:38:48;-2.50;25.60
21762;DHT22;11203;50.870;20.682;2023-02-28T05:41:15;-2.50;1.00
21762;DHT22;11203;50.870;20.682;2023-02-28T05:43:42;-2.60;99.90
21762;DHT22;11203;50.870;20.682;2023-02-28T05:46:10;-2.60;1.00
21762;DHT22;11203;50.870;20.682;2023-02-28T05:48:40;-2.60;99.90
21762;DHT22;11203;50.870;20.682;2023-02-28T05:51:07;-2.60;1.00
21762;DHT22;11203;50.870;20.682;2023-02-28T05:53:34;-2.60;99.90
21762;DHT22;11203;50.870;20.682;2023-02-28T05:56:01;-2.50;1.00
21762;DHT22;11203;50.870;20.682;2023-02-28T05:58:28;-2.50;1.00
21762;DHT22;11203;50.870;20.682;2023-02-28T06:00:59;-2.10;1.00
21762;DHT22;11203;50.870;20.682;2023-02-28T06:03:27;-2.40;99.90
21762;DHT22;11203;50.870;20.682;2023-02-28T06:05:53;-2.50;1.00
21762;DHT22;11203;50.870;20.682;2023-02-28T06:08:20;-2.50;99.90
21762;DHT22;11203;50.870;20.682;2023-02-28T06:10:46;-2.50;1.00
21762;DHT22;11203;50.870;20.682;2023-02-28T06:13:12;-2.70;1.00
21762;DHT22;11203;50.870;20.682;2023-02-28T06:15:38;-2.60;99.90
21762;DHT22;11203;50.870;20.682;2023-02-28T06:18:05;-2.50;1.00
21762;DHT22;11203;50.870;20.682;2023-02-28T06:20:31;-2.40;99.90
21762;DHT22;11203;50.870;20.682;2023-02-28T06:22:57;-2.40;1.60
21762;DHT22;11203;50.870;20.682;2023-02-28T06:25:27;-2.40;7.70
21762;DHT22;11203;50.870;20.682;2023-02-28T06:27:55;-2.40;1.00
21762;DHT22;11203;50.870;20.682;2023-02-28T06:30:21;-2.40;1.00
21762;DHT22;11203;50.870;20.682;2023-02-28T06:32:53;-2.30;99.90
21762;DHT22;11203;50.870;20.682;2023-02-28T06:35:19;-2.20;99.90
21762;DHT22;11203;50.870;20.682;2023-02-28T06:37:46;-2.20;99.90
21762;DHT22;11203;50.870;20.682;2023-02-28T06:40:13;-2.20;1.00
21762;DHT22;11203;50.870;20.682;2023-02-28T06:42:39;-2.20;99.90
21762;DHT22;11203;50.870;20.682;2023-02-28T06:45:05;-2.10;99.90
21762;DHT22;11203;50.870;20.682;2023-02-28T06:47:36;-2.00;99.90
21762;DHT22;11203;50.870;20.682;2023-02-28T06:50:04;-2.00;99.90
21762;DHT22;11203;50.870;20.682;2023-02-28T06:52:30;-1.90;1.00
21762;DHT22;11203;50.870;20.682;2023-02-28T06:54:57;-1.90;99.90
21762;DHT22;11203;50.870;20.682;2023-02-28T06:57:30;-1.80;1.00
21762;DHT22;11203;50.870;20.682;2023-02-28T06:59:58;-1.70;1.00
21762;DHT22;11203;50.870;20.682;2023-02-28T07:02:26;-1.50;1.00
21762;DHT22;11203;50.870;20.682;2023-02-28T07:04:52;-1.50;1.00
21762;DHT22;11203;50.870;20.682;2023-02-28T07:07:18;-1.40;1.00
21762;DHT22;11203;50.870;20.682;2023-02-28T07:09:44;-1.20;99.90
21762;DHT22;11203;50.870;20.682;2023-02-28T07:12:11;-1.10;1.00
21762;DHT22;11203;50.870;20.682;2023-02-28T07:14:37;-1.00;1.00
21762;DHT22;11203;50.870;20.682;2023-02-28T07:17:03;-1.00;1.00
21762;DHT22;11203;50.870;20.682;2023-02-28T07:19:29;-0.90;1.00
21762;DHT22;11203;50.870;20.682;2023-02-28T07:21:55;-0.80;1.00
21762;DHT22;11203;50.870;20.682;2023-02-28T07:24:21;-0.80;1.00
21762;DHT22;11203;50.870;20.682;2023-02-28T07:26:49;-0.80;1.00
21762;DHT22;11203;50.870;20.682;2023-02-28T07:29:15;-0.60;1.00
21762;DHT22;11203;50.870;20.682;2023-02-28T07:31:42;-0.70;1.00
21762;DHT22;11203;50.870;20.682;2023-02-28T07:34:08;-0.60;99.90
21762;DHT22;11203;50.870;20.682;2023-02-28T07:36:34;-0.60;1.00
21762;DHT22;11203;50.870;20.682;2023-02-28T07:39:00;-0.70;99.90
21762;DHT22;11203;50.870;20.682;2023-02-28T07:41:26;-0.50;1.00
21762;DHT22;11203;50.870;20.682;2023-02-28T07:43:55;-0.40;93.60
21762;DHT22;11203;50.870;20.682;2023-02-28T07:46:23;-0.50;1.00
21762;DHT22;11203;50.870;20.682;2023-02-28T07:48:49;-0.40;1.00
21762;DHT22;11203;50.870;20.682;2023-02-28T07:51:15;-0.30;1.00
21762;DHT22;11203;50.870;20.682;2023-02-28T07:53:41;-0.20;99.90
21762;DHT22;11203;50.870;20.682;2023-02-28T07:56:07;-0.20;99.10
21762;DHT22;11203;50.870;20.682;2023-02-28T07:58:34;-0.20;99.90
21762;DHT22;11203;50.870;20.682;2023-02-28T08:01:08;-0.20;1.00
21762;DHT22;11203;50.870;20.682;2023-02-28T08:03:35;-0.20;99.90
21762;DHT22;11203;50.870;20.682;2023-02-28T08:06:06;-0.10;99.90
21762;DHT22;11203;50.870;20.682;2023-02-28T08:08:34;-0.10;19.50
21762;DHT22;11203;50.870;20.682;2023-02-28T08:11:01;0.00;99.90
21762;DHT22;11203;50.870;20.682;2023-02-28T08:13:29;0.10;39.30
21762;DHT22;11203;50.870;20.682;2023-02-28T08:15:56;0.20;99.90
21762;DHT22;11203;50.870;20.682;2023-02-28T08:18:23;0.10;1.00
21762;DHT22;11203;50.870;20.682;2023-02-28T08:20:49;0.10;1.00
21762;DHT22;11203;50.870;20.682;2023-02-28T08:23:15;0.10;1.00
21762;DHT22;11203;50.870;20.682;2023-02-28T08:25:42;0.20;99.90
21762;DHT22;11203;50.870;20.682;2023-02-28T08:28:07;0.00;85.90
21762;DHT22;11203;50.870;20.682;2023-02-28T08:30:34;0.10;1.00
21762;DHT22;11203;50.870;20.682;2023-02-28T08:32:59;0.20;99.90
21762;DHT22;11203;50.870;20.682;2023-02-28T08:35:27;0.30;99.90
21762;DHT22;11203;50.870;20.682;2023-02-28T08:37:53;0.10;1.00
21762;DHT22;11203;50.870;20.682;2023-02-28T08:40:20;0.30;1.00
21762;DHT22;11203;50.870;20.682;2023-02-28T08:42:46;0.30;1.00
21762;DHT22;11203;50.870;20.682;2023-02-28T08:45:14;0.30;1.00
21762;DHT22;11203;50.870;20.682;2023-02-28T08:47:40;0.50;1.00
21762;DHT22;11203;50.870;20.682;2023-02-28T08:50:07;0.60;99.90
21762;DHT22;11203;50.870;20.682;2023-02-28T08:52:34;0.60;1.00
21762;DHT22;11203;50.870;20.682;2023-02-28T08:55:01;0.50;1.00
21762;DHT22;11203;50.870;20.682;2023-02-28T08:57:27;0.30;52.50
21762;DHT22;11203;50.870;20.682;2023-02-28T08:59:53;0.50;99.90
21762;DHT22;11203;50.870;20.682;2023-02-28T09:02:20;0.60;1.00
21762;DHT22;11203;50.870;20.682;2023-02-28T09:04:46;0.60;1.00
21762;DHT22;11203;50.870;20.682;2023-02-28T09:07:12;0.60;1.00
21762;DHT22;11203;50.870;20.682;2023-02-28T09:09:38;0.70;1.00
21762;DHT22;11203;50.870;20.682;2023-02-28T09:12:23;0.90;1.00
21762;DHT22;11203;50.870;20.682;2023-02-28T09:14:59;0.70;1.00
21762;DHT22;11203;50.870;20.682;2023-02-28T09:17:25;0.70;99.90
21762;DHT22;11203;50.870;20.682;2023-02-28T09:19:52;0.70;69.90
21762;DHT22;11203;50.870;20.682;2023-02-28T09:22:18;0.80;99.90
21762;DHT22;11203;50.870;20.682;2023-02-28T09:24:45;0.90;84.80
21762;DHT22;11203;50.870;20.682;2023-02-28T09:27:11;0.80;56.20
21762;DHT22;11203;50.870;20.682;2023-02-28T09:29:37;0.70;1.00
21762;DHT22;11203;50.870;20.682;2023-02-28T09:32:03;0.60;1.00
21762;DHT22;11203;50.870;20.682;2023-02-28T09:34:32;0.70;16.30
21762;DHT22;11203;50.870;20.682;2023-02-28T09:36:58;0.80;1.00
21762;DHT22;11203;50.870;20.682;2023-02-28T09:39:25;0.70;99.90
21762;DHT22;11203;50.870;20.682;2023-02-28T09:41:53;0.70;1.00
21762;DHT22;11203;50.870;20.682;2023-02-28T09:44:43;0.90;99.90
21762;DHT22;11203;50.870;20.682;2023-02-28T09:49:52;0.90;1.00
21762;DHT22;11203;50.870;20.682;2023-02-28T09:52:20;0.90;99.90
21762;DHT22;11203;50.870;20.682;2023-02-28T09:54:48;1.00;99.90
21762;DHT22;11203;50.870;20.682;2023-02-28T10:09:03;1.20;99.90
21762;DHT22;11203;50.870;20.682;2023-02-28T10:11:36;1.30;99.90
21762;DHT22;11203;50.870;20.682;2023-02-28T10:14:16;1.40;1.00
21762;DHT22;11203;50.870;20.682;2023-02-28T10:17:12;1.40;99.90
21762;DHT22;11203;50.870;20.682;2023-02-28T10:19:44;1.30;99.90
21762;DHT22;11203;50.870;20.682;2023-02-28T10:22:21;1.40;99.90
21762;DHT22;11203;50.870;20.682;2023-02-28T10:24:52;1.40;99.90
21762;DHT22;11203;50.870;20.682;2023-02-28T10:27:25;1.30;1.00
21762;DHT22;11203;50.870;20.682;2023-02-28T10:29:55;1.30;1.00
21762;DHT22;11203;50.870;20.682;2023-02-28T10:32:35;1.30;1.00
21762;DHT22;11203;50.870;20.682;2023-02-28T10:37:42;1.60;99.90
21762;DHT22;11203;50.870;20.682;2023-02-28T10:42:56;1.50;1.00
21762;DHT22;11203;50.870;20.682;2023-02-28T10:45:23;1.50;1.00
21762;DHT22;11203;50.870;20.682;2023-02-28T10:47:56;1.50;1.00
21762;DHT22;11203;50.870;20.682;2023-02-28T10:50:39;1.60;1.00
21762;DHT22;11203;50.870;20.682;2023-02-28T10:55:57;1.50;1.00
21762;DHT22;11203;50.870;20.682;2023-02-28T11:01:41;1.80;1.00
21762;DHT22;11203;50.870;20.682;2023-02-28T11:07:23;1.80;99.90
21762;DHT22;11203;50.870;20.682;2023-02-28T11:09:54;2.00;1.00
21762;DHT22;11203;50.870;20.682;2023-02-28T11:18:16;2.00;1.00
21762;DHT22;11203;50.870;20.682;2023-02-28T11:20:54;1.90;1.00
21762;DHT22;11203;50.870;20.682;2023-02-28T11:23:25;2.00;1.00
21762;DHT22;11203;50.870;20.682;2023-02-28T11:25:57;1.90;1.00
21762;DHT22;11203;50.870;20.682;2023-02-28T11:28:31;1.90;1.00
21762;DHT22;11203;50.870;20.682;2023-02-28T11:33:37;2.10;1.00
21762;DHT22;11203;50.870;20.682;2023-02-28T11:36:33;2.00;99.90
21762;DHT22;11203;50.870;20.682;2023-02-28T11:39:03;2.10;1.00
21762;DHT22;11203;50.870;20.682;2023-02-28T11:53:00;2.50;1.00
21762;DHT22;11203;50.870;20.682;2023-02-28T11:55:36;2.50;1.00
21762;DHT22;11203;50.870;20.682;2023-02-28T11:58:37;2.40;1.00
21762;DHT22;11203;50.870;20.682;2023-02-28T12:11:09;2.40;99.90
21762;DHT22;11203;50.870;20.682;2023-02-28T12:23:11;2.40;99.90
21762;DHT22;11203;50.870;20.682;2023-02-28T12:28:42;2.50;1.00
21762;DHT22;11203;50.870;20.682;2023-02-28T12:31:24;2.40;99.90
21762;DHT22;11203;50.870;20.682;2023-02-28T12:33:59;2.30;1.00
21762;DHT22;11203;50.870;20.682;2023-02-28T12:36:29;2.50;1.00
21762;DHT22;11203;50.870;20.682;2023-02-28T12:39:00;2.50;1.00
21762;DHT22;11203;50.870;20.682;2023-02-28T12:44:28;2.40;1.00
21762;DHT22;11203;50.870;20.682;2023-02-28T12:46:59;2.50;1.00
21762;DHT22;11203;50.870;20.682;2023-02-28T12:49:42;2.40;1.00
21762;DHT22;11203;50.870;20.682;2023-02-28T12:52:14;2.50;1.00
21762;DHT22;11203;50.870;20.682;2023-02-28T12:56:07;2.50;1.00
21762;DHT22;11203;50.870;20.682;2023-02-28T13:07:40;2.70;1.00
21762;DHT22;11203;50.870;20.682;2023-02-28T13:10:15;2.70;1.00
21762;DHT22;11203;50.870;20.682;2023-02-28T13:12:49;2.70;1.00
21762;DHT22;11203;50.870;20.682;2023-02-28T13:17:56;2.70;1.00
21762;DHT22;11203;50.870;20.682;2023-02-28T13:20:35;2.70;1.00
21762;DHT22;11203;50.870;20.682;2023-02-28T13:23:02;2.80;1.00
21762;DHT22;11203;50.870;20.682;2023-02-28T13:28:01;2.90;1.00
21762;DHT22;11203;50.870;20.682;2023-02-28T13:33:22;2.90;1.00
21762;DHT22;11203;50.870;20.682;2023-02-28T13:38:55;2.90;1.00
21762;DHT22;11203;50.870;20.682;2023-02-28T13:49:29;2.90;1.00
21762;DHT22;11203;50.870;20.682;2023-02-28T13:54:56;2.90;1.00
21762;DHT22;11203;50.870;20.682;2023-02-28T14:03:58;3.00;1.00
21762;DHT22;11203;50.870;20.682;2023-02-28T14:06:56;3.00;1.00
21762;DHT22;11203;50.870;20.682;2023-02-28T14:11:51;2.90;1.00
21762;DHT22;11203;50.870;20.682;2023-02-28T14:17:03;3.00;1.00
21762;DHT22;11203;50.870;20.682;2023-02-28T14:19:32;3.00;1.00
21762;DHT22;11203;50.870;20.682;2023-02-28T14:22:13;2.90;1.00
21762;DHT22;11203;50.870;20.682;2023-02-28T14:28:20;3.00;1.00
21762;DHT22;11203;50.870;20.682;2023-02-28T14:31:18;2.80;1.00
21762;DHT22;11203;50.870;20.682;2023-02-28T14:34:31;2.80;1.00
21762;DHT22;11203;50.870;20.682;2023-02-28T14:37:03;2.90;1.00
21762;DHT22;11203;50.870;20.682;2023-02-28T14:39:31;2.90;1.00
21762;DHT22;11203;50.870;20.682;2023-02-28T14:41:58;2.80;1.00
21762;DHT22;11203;50.870;20.682;2023-02-28T14:44:30;2.80;1.00
21762;DHT22;11203;50.870;20.682;2023-02-28T14:47:00;2.80;1.00
21762;DHT22;11203;50.870;20.682;2023-02-28T14:49:36;2.80;1.00
21762;DHT22;11203;50.870;20.682;2023-02-28T14:52:15;2.80;1.00
21762;DHT22;11203;50.870;20.682;2023-02-28T14:54:46;2.80;1.00
21762;DHT22;11203;50.870;20.682;2023-02-28T14:57:30;2.70;1.00
21762;DHT22;11203;50.870;20.682;2023-02-28T15:00:09;2.70;1.00
21762;DHT22;11203;50.870;20.682;2023-02-28T15:02:40;2.70;1.00
21762;DHT22;11203;50.870;20.682;2023-02-28T15:07:39;2.70;1.00
21762;DHT22;11203;50.870;20.682;2023-02-28T15:10:26;2.60;1.00
21762;DHT22;11203;50.870;20.682;2023-02-28T15:12:58;2.60;1.00
21762;DHT22;11203;50.870;20.682;2023-02-28T15:15:55;2.60;1.00
21762;DHT22;11203;50.870;20.682;2023-02-28T15:21:17;2.60;1.00
21762;DHT22;11203;50.870;20.682;2023-02-28T15:23:49;2.50;1.00
21762;DHT22;11203;50.870;20.682;2023-02-28T15:26:44;2.50;1.00
21762;DHT22;11203;50.870;20.682;2023-02-28T15:29:15;2.50;1.00
21762;DHT22;11203;50.870;20.682;2023-02-28T15:31:46;2.50;1.00
21762;DHT22;11203;50.870;20.682;2023-02-28T15:37:28;2.40;1.00
21762;DHT22;11203;50.870;20.682;2023-02-28T15:40:32;2.40;1.00
21762;DHT22;11203;50.870;20.682;2023-02-28T15:43:05;2.40;1.00
21762;DHT22;11203;50.870;20.682;2023-02-28T15:45:34;2.30;1.00
21762;DHT22;11203;50.870;20.682;2023-02-28T15:48:28;2.20;1.00
21762;DHT22;11203;50.870;20.682;2023-02-28T15:51:07;2.10;1.00
21762;DHT22;11203;50.870;20.682;2023-02-28T15:56:27;2.00;1.00
21762;DHT22;11203;50.870;20.682;2023-02-28T15:59:03;1.90;1.00
21762;DHT22;11203;50.870;20.682;2023-02-28T16:01:33;1.90;1.00
21762;DHT22;11203;50.870;20.682;2023-02-28T16:04:14;1.80;1.00
21762;DHT22;11203;50.870;20.682;2023-02-28T16:06:43;1.70;1.00
21762;DHT22;11203;50.870;20.682;2023-02-28T16:09:26;1.80;1.00
21762;DHT22;11203;50.870;20.682;2023-02-28T16:11:55;1.60;1.00
21762;DHT22;11203;50.870;20.682;2023-02-28T16:14:28;1.60;1.00
21762;DHT22;11203;50.870;20.682;2023-02-28T16:17:20;1.50;1.00
21762;DHT22;11203;50.870;20.682;2023-02-28T16:19:55;1.40;1.00
21762;DHT22;11203;50.870;20.682;2023-02-28T16:22:21;1.40;1.00
21762;DHT22;11203;50.870;20.682;2023-02-28T16:24:48;1.30;1.00
21762;DHT22;11203;50.870;20.682;2023-02-28T16:27:27;1.20;1.00
21762;DHT22;11203;50.870;20.682;2023-02-28T16:29:56;1.10;1.00
21762;DHT22;11203;50.870;20.682;2023-02-28T16:32:23;1.00;1.00
21762;DHT22;11203;50.870;20.682;2023-02-28T16:34:49;0.90;1.00
21762;DHT22;11203;50.870;20.682;2023-02-28T16:37:17;0.90;1.00
21762;DHT22;11203;50.870;20.682;2023-02-28T16:39:44;0.80;99.90
21762;DHT22;11203;50.870;20.682;2023-02-28T16:42:15;0.60;99.90
21762;DHT22;11203;50.870;20.682;2023-02-28T16:44:47;0.60;99.90
21762;DHT22;11203;50.870;20.682;2023-02-28T16:47:14;0.40;1.00
21762;DHT22;11203;50.870;20.682;2023-02-28T16:49:40;0.30;99.90
21762;DHT22;11203;50.870;20.682;2023-02-28T16:52:09;0.10;1.00
21762;DHT22;11203;50.870;20.682;2023-02-28T16:54:36;0.10;28.70
21762;DHT22;11203;50.870;20.682;2023-02-28T16:57:02;0.10;1.00
21762;DHT22;11203;50.870;20.682;2023-02-28T16:59:28;0.00;99.90
21762;DHT22;11203;50.870;20.682;2023-02-28T17:01:55;0.00;1.00
21762;DHT22;11203;50.870;20.682;2023-02-28T17:04:26;-0.10;1.00
21762;DHT22;11203;50.870;20.682;2023-02-28T17:06:52;-0.10;1.00
21762;DHT22;11203;50.870;20.682;2023-02-28T17:09:23;-0.20;1.00
21762;DHT22;11203;50.870;20.682;2023-02-28T17:11:50;-0.20;33.90
21762;DHT22;11203;50.870;20.682;2023-02-28T17:14:17;-0.30;99.90
21762;DHT22;11203;50.870;20.682;2023-02-28T17:16:43;-0.40;99.90
21762;DHT22;11203;50.870;20.682;2023-02-28T17:19:13;-0.40;1.00
21762;DHT22;11203;50.870;20.682;2023-02-28T17:21:41;-0.50;10.50
21762;DHT22;11203;50.870;20.682;2023-02-28T17:24:09;-0.50;1.00
21762;DHT22;11203;50.870;20.682;2023-02-28T17:26:39;-0.40;1.00
21762;DHT22;11203;50.870;20.682;2023-02-28T17:29:25;-0.50;5.00
21762;DHT22;11203;50.870;20.682;2023-02-28T17:31:51;-0.50;1.00
21762;DHT22;11203;50.870;20.682;2023-02-28T17:34:17;-0.50;1.00
21762;DHT22;11203;50.870;20.682;2023-02-28T17:36:46;-0.70;99.90
21762;DHT22;11203;50.870;20.682;2023-02-28T17:39:15;-0.70;1.00
21762;DHT22;11203;50.870;20.682;2023-02-28T17:41:50;-0.80;1.00
21762;DHT22;11203;50.870;20.682;2023-02-28T17:44:18;-0.90;1.00
21762;DHT22;11203;50.870;20.682;2023-02-28T17:46:45;-1.00;1.00
21762;DHT22;11203;50.870;20.682;2023-02-28T17:49:13;-1.10;99.90
21762;DHT22;11203;50.870;20.682;2023-02-28T17:51:40;-1.10;1.00
21762;DHT22;11203;50.870;20.682;2023-02-28T17:54:06;-1.20;1.00
21762;DHT22;11203;50.870;20.682;2023-02-28T17:56:33;-1.20;1.00
21762;DHT22;11203;50.870;20.682;2023-02-28T17:58:59;-1.30;99.90
21762;DHT22;11203;50.870;20.682;2023-02-28T18:01:26;-1.10;1.00
21762;DHT22;11203;50.870;20.682;2023-02-28T18:03:53;-1.30;99.90
21762;DHT22;11203;50.870;20.682;2023-02-28T18:06:38;-1.20;99.90
21762;DHT22;11203;50.870;20.682;2023-02-28T18:09:21;-1.30;99.90
21762;DHT22;11203;50.870;20.682;2023-02-28T18:11:53;-1.30;99.90
21762;DHT22;11203;50.870;20.682;2023-02-28T18:14:22;-1.40;1.00
21762;DHT22;11203;50.870;20.682;2023-02-28T18:16:52;-1.30;99.90
21762;DHT22;11203;50.870;20.682;2023-02-28T18:19:19;-1.30;1.00
21762;DHT22;11203;50.870;20.682;2023-02-28T18:21:49;-1.40;1.00
21762;DHT22;11203;50.870;20.682;2023-02-28T18:24:18;-1.30;1.00
21762;DHT22;11203;50.870;20.682;2023-02-28T18:26:45;-1.40;1.00
21762;DHT22;11203;50.870;20.682;2023-02-28T18:29:21;-1.50;99.90
21762;DHT22;11203;50.870;20.682;2023-02-28T18:31:48;-1.50;1.00
21762;DHT22;11203;50.870;20.682;2023-02-28T18:34:15;-1.50;45.50
21762;DHT22;11203;50.870;20.682;2023-02-28T18:36:42;-1.40;99.90
21762;DHT22;11203;50.870;20.682;2023-02-28T18:39:09;-1.50;99.90
21762;DHT22;11203;50.870;20.682;2023-02-28T18:41:37;-1.40;99.90
21762;DHT22;11203;50.870;20.682;2023-02-28T18:44:04;-1.40;1.00
21762;DHT22;11203;50.870;20.682;2023-02-28T18:46:30;-1.40;1.00